WetterOnline ( https://www.wetteronline.de )

Wetter aktuell Lößnitz

Aktuelles Wetter: Carlsfeld (899m)

6-stündlich | Neueste Meldungen
Ortszeit Temperatur Wetter
So, 26.05. 20:00 15.7° C wolkig
So, 26.05. 14:00 17.5° C wolkig
So, 26.05. 8:00 12.4° C wolkig
So, 26.05. 2:00 8.7° C leicht bewölkt
Sa, 25.05. 20:00 11.7° C wolkig
Sa, 25.05. 14:00 15.6° C bewölkt
Sa, 25.05. 8:00 10.8° C leicht bewölkt
Sa, 25.05. 2:00 9.6° C Nebel
Ortszeit Temperatur Wetter
So, 26.05. 22:30 13.2° C bedeckt
So, 26.05. 22:20 13.2° C bedeckt
So, 26.05. 22:10 13.2° C bedeckt
So, 26.05. 22:00 13.1° C bedeckt
So, 26.05. 21:50 13.1° C bedeckt
So, 26.05. 21:40 13.2° C bedeckt
So, 26.05. 21:30 13.6° C bedeckt
So, 26.05. 21:00 14.2° C bedeckt
So, 26.05. 20:30 15.0° C bewölkt
So, 26.05. 20:00 15.7° C wolkig
So, 26.05. 19:30 16.6° C wolkig
Ortszeit Relative Feuchte Sichtweite
So, 26.05. 20:00 66% 40 km
So, 26.05. 14:00 59% 45 km
So, 26.05. 8:00 92% 30 km
So, 26.05. 2:00 92% 35 km
Sa, 25.05. 20:00 88% 50 km
Sa, 25.05. 14:00 59% 45 km
Sa, 25.05. 8:00 94% 20 km
Sa, 25.05. 2:00 99% 100 m
Ortszeit Relative Feuchte Sichtweite
So, 26.05. 22:30 78% 45 km
So, 26.05. 22:20 78% -
So, 26.05. 22:10 77% -
So, 26.05. 22:00 76% 50 km
So, 26.05. 21:50 76% -
So, 26.05. 21:40 76% -
So, 26.05. 21:30 74% 50 km
So, 26.05. 21:00 71% 40 km
So, 26.05. 20:30 68% 40 km
So, 26.05. 20:00 66% 40 km
So, 26.05. 19:30 65% 40 km
Ortszeit Niederschlagsmenge Niederschlagsart
So, 26.05. 20:00 0.3 l/m2 in 12 Std. Regen
So, 26.05. 14:00 0.0 l/m2 in 6 Std. -
So, 26.05. 8:00 0.1 l/m2 in 12 Std. -
So, 26.05. 2:00 0.1 l/m2 in 6 Std. -
Sa, 25.05. 20:00 3 l/m2 in 12 Std. Regen
Sa, 25.05. 14:00 0.1 l/m2 in 6 Std. Regen
Sa, 25.05. 8:00 0.1 l/m2 in 12 Std. -
Sa, 25.05. 2:00 0.1 l/m2 in 6 Std. -
Ortszeit Niederschlagsmenge Niederschlagsart
So, 26.05. 22:30 0.0 l/m2 in 30 Min -
So, 26.05. 22:20 keine Meldung -
So, 26.05. 22:10 keine Meldung -
So, 26.05. 22:00 0.0 l/m2 in 1 Std. -
So, 26.05. 21:50 keine Meldung -
So, 26.05. 21:40 keine Meldung -
So, 26.05. 21:30 0.0 l/m2 in 30 Min -
So, 26.05. 21:00 0.0 l/m2 in 1 Std. -
So, 26.05. 20:30 0.0 l/m2 in 30 Min -
So, 26.05. 20:00 0.0 l/m2 in 1 Std. Regen
So, 26.05. 19:30 0.0 l/m2 in 30 Min -
Ortszeit Stärke Spitze Richtung
km/h Bft. km/h Grad Sektor
So, 26.05. 20:00 11 2 32 170° S
So, 26.05. 14:00 15 3 31 210° SW
So, 26.05. 8:00 6 1 11 230° SW
So, 26.05. 2:00 7 2 14 230° SW
Sa, 25.05. 20:00 0 0 25 - -
Sa, 25.05. 14:00 4 1 22 140° SO
Sa, 25.05. 8:00 6 1 17 220° SW
Sa, 25.05. 2:00 4 1 14 190° S
Ortszeit Stärke Spitze Richtung
km/h Bft. km/h Grad Sektor
So, 26.05. 22:30 7 2 18 190° S
So, 26.05. 22:20 7 2 - 190° S
So, 26.05. 22:10 9 2 - 190° S
So, 26.05. 22:00 7 2 22 190° S
So, 26.05. 21:50 7 2 - 190° S
So, 26.05. 21:40 7 2 - 190° S
So, 26.05. 21:30 7 2 22 180° S
So, 26.05. 21:00 7 2 18 180° S
So, 26.05. 20:30 9 2 19 160° S
So, 26.05. 20:00 11 2 22 170° S
So, 26.05. 19:30 11 2 22 200° S
Ortszeit Untergrenze Bedeckung Gattung
total tief tief mittel hoch
So, 26.05. 20:00 8100 m 8/8 0/8 - - -
So, 26.05. 14:00 1020 m 6/8 2/8 - - -
So, 26.05. 8:00 5100 m 8/8 8/8 - - -
So, 26.05. 2:00 8700 m 5/8 0/8 - - -
Sa, 25.05. 20:00 6300 m 7/8 5/8 - - -
Sa, 25.05. 14:00 1020 m 8/8 7/8 - - -
Sa, 25.05. 8:00 150 m 3/8 3/8 - - -
Sa, 25.05. 2:00 <30 m 8/8 0/8 - - -
Ortszeit Bedeckungsgrad in Achtel und Wolkenuntergrenze
So, 26.05. 22:30 7(4500m) 8(5100m) 8(6600m)
So, 26.05. 22:20 7(4500m) 8(5100m) 8(6600m)
So, 26.05. 22:10 8
So, 26.05. 22:00 8(5100m) 8(7500m) 8(8700m)
So, 26.05. 21:50 8(5100m) 8(7500m) 8(8700m)
So, 26.05. 21:40 8
So, 26.05. 21:30 8(5700m) 8(8400m) 8(9000m)
So, 26.05. 21:00 8(6000m)
So, 26.05. 20:30 5(6300m) 8(7200m)
So, 26.05. 20:00 7(8100m) 8(9000m)
So, 26.05. 19:30 7(8700m) 7(9000m)
Ortszeit Stationsdruck (hPa) Tendenz (hPa in 3 Std.)
So, 26.05. 20:00 916 + 0,2
So, 26.05. 14:00 917 + 0,3
So, 26.05. 8:00 916 + 0,8
So, 26.05. 2:00 916 - 0,2
Sa, 25.05. 20:00 915 - 0,4
Sa, 25.05. 14:00 915 - 0,3
Sa, 25.05. 8:00 915 + 0,6
Sa, 25.05. 2:00 915 0,0
Ortszeit Stationsdruck (hPa) Tendenz (hPa in 3 Std.)
So, 26.05. 22:30 917 + 0,7
So, 26.05. 22:20 917 keine Meldung
So, 26.05. 22:10 917 keine Meldung
So, 26.05. 22:00 917 + 1,1
So, 26.05. 21:50 917 keine Meldung
So, 26.05. 21:40 917 keine Meldung
So, 26.05. 21:30 917 + 1,0
So, 26.05. 21:00 917 + 0,8
So, 26.05. 20:30 917 + 0,5
So, 26.05. 20:00 916 + 0,2
So, 26.05. 19:30 916 - 0,2
Ortszeit Schneehöhe (cm)
So, 26.05. 20:00 0
So, 26.05. 14:00 0
So, 26.05. 8:00 0
So, 26.05. 2:00 0
Sa, 25.05. 20:00 0
Sa, 25.05. 14:00 0
Sa, 25.05. 8:00 0
Sa, 25.05. 2:00 0
Ortszeit Schneehöhe (cm)
So, 26.05. 22:30 0
So, 26.05. 22:20 0
So, 26.05. 22:10 -
So, 26.05. 22:00 0
So, 26.05. 21:50 0
So, 26.05. 21:40 -
So, 26.05. 21:30 0
So, 26.05. 21:00 0
So, 26.05. 20:30 0
So, 26.05. 20:00 0
So, 26.05. 19:30 0
Link zu dieser Seite / Seite empfehlen

Das Wetter in ...